createdAt,value
2022-11-18T00:02:26.439Z,26.42
2022-11-18T00:07:29.797Z,29.23
2022-11-18T00:12:53.020Z,21.33
2022-11-18T00:17:56.071Z,19.35
2022-11-18T00:22:59.084Z,26.83
2022-11-18T00:28:04.496Z,25.60
2022-11-18T00:38:10.561Z,23.95
2022-11-18T00:43:15.252Z,22.42
2022-11-18T00:48:21.680Z,19.03
2022-11-18T00:53:26.627Z,31.08
2022-11-18T00:58:31.032Z,21.33
2022-11-18T01:03:34.141Z,21.30
2022-11-18T01:08:37.254Z,20.95
2022-11-18T01:13:41.630Z,23.10
2022-11-18T01:18:44.764Z,25.47
2022-11-18T01:23:48.448Z,22.30
2022-11-18T01:28:55.885Z,22.38
2022-11-18T01:33:59.289Z,21.13
2022-11-18T01:39:02.389Z,19.65
2022-11-18T01:44:45.226Z,19.88
2022-11-18T01:49:48.524Z,21.33
2022-11-18T01:54:55.821Z,20.23
2022-11-18T02:00:03.855Z,23.83
2022-11-18T02:05:10.859Z,19.52
2022-11-18T02:10:20.386Z,20.98
2022-11-18T02:15:36.150Z,22.45
2022-11-18T02:20:42.009Z,22.20
2022-11-18T02:26:04.017Z,23.33
2022-11-18T02:31:14.806Z,23.90
2022-11-18T02:36:21.027Z,23.52
2022-11-18T02:41:28.135Z,27.35
2022-11-18T02:46:36.139Z,20.48
2022-11-18T02:51:41.779Z,25.25
2022-11-18T02:56:46.576Z,23.45
2022-11-18T03:01:51.038Z,21.77
2022-11-18T03:07:01.828Z,20.13
2022-11-18T03:12:14.497Z,17.45
2022-11-18T03:17:24.400Z,24.30
2022-11-18T03:22:32.936Z,24.67
2022-11-18T03:27:40.098Z,18.83
2022-11-18T03:32:51.728Z,23.40
2022-11-18T03:38:00.329Z,16.58
2022-11-18T03:43:09.729Z,18.88
2022-11-18T03:48:16.452Z,24.83
2022-11-18T03:53:23.806Z,21.00
2022-11-18T03:58:30.604Z,25.38
2022-11-18T04:03:35.368Z,22.45
2022-11-18T04:08:42.706Z,24.15
2022-11-18T04:13:45.927Z,23.13
2022-11-18T04:18:50.328Z,21.33
2022-11-18T04:23:53.383Z,24.43
2022-11-18T04:28:56.934Z,24.13
2022-11-18T04:34:01.355Z,25.27
2022-11-18T04:39:04.803Z,23.33
2022-11-18T04:44:13.360Z,31.15
2022-11-18T04:49:18.567Z,30.15
2022-11-18T04:59:26.640Z,26.90
2022-11-18T05:04:33.560Z,28.58
2022-11-18T05:09:36.720Z,37.35
2022-11-18T05:14:41.443Z,23.25
2022-11-18T05:19:48.482Z,23.88
2022-11-18T05:24:51.520Z,30.47
2022-11-18T05:29:54.636Z,25.67
2022-11-18T05:34:59.057Z,21.50
2022-11-18T05:40:02.175Z,28.07
2022-11-18T05:45:06.106Z,28.83
2022-11-18T05:50:11.302Z,23.40
2022-11-18T05:55:16.168Z,20.40
2022-11-18T06:00:19.450Z,19.35
2022-11-18T06:05:26.292Z,27.02
2022-11-18T06:10:35.057Z,20.75
2022-11-18T06:15:41.368Z,20.95
2022-11-18T06:20:46.497Z,15.98
2022-11-18T06:30:52.845Z,22.88
2022-11-18T06:35:57.222Z,14.05
2022-11-18T06:41:01.024Z,19.37
2022-11-18T06:46:25.605Z,20.55
2022-11-18T06:51:30.306Z,16.20
2022-11-18T06:56:35.666Z,14.60
2022-11-18T07:01:41.403Z,17.05
2022-11-18T07:06:46.563Z,17.30
2022-11-18T07:11:49.579Z,21.57
2022-11-18T07:16:52.623Z,17.45
2022-11-18T07:21:59.484Z,21.15
2022-11-18T07:27:02.571Z,17.67
2022-11-18T07:32:06.797Z,20.75
2022-11-18T07:37:11.195Z,17.30
2022-11-18T07:42:14.384Z,19.40
2022-11-18T07:47:17.602Z,22.88
2022-11-18T07:52:22.054Z,18.33
2022-11-18T07:57:25.149Z,22.55
2022-11-18T08:02:28.323Z,21.88
2022-11-18T08:07:32.769Z,20.05
2022-11-18T08:12:35.930Z,16.30
2022-11-18T08:17:39.528Z,19.23
2022-11-18T08:22:43.971Z,17.55
2022-11-18T08:27:47.028Z,16.03
2022-11-18T08:32:50.115Z,20.13
2022-11-18T08:37:54.801Z,16.05
2022-11-18T08:42:57.869Z,17.27
2022-11-18T08:48:00.989Z,19.80
2022-11-18T08:53:05.545Z,22.15
2022-11-18T08:58:08.650Z,16.88
2022-11-18T09:03:11.867Z,15.10
2022-11-18T09:08:17.091Z,14.85
2022-11-18T09:18:43.163Z,14.73
2022-11-18T09:23:47.638Z,21.35
2022-11-18T09:28:53.332Z,13.95
2022-11-18T09:33:58.729Z,13.05
2022-11-18T09:39:03.275Z,11.30
2022-11-18T09:44:13.670Z,14.82
2022-11-18T09:49:26.393Z,17.58
2022-11-18T09:54:34.463Z,14.00
2022-11-18T09:59:38.113Z,11.68
2022-11-18T10:04:41.403Z,13.93
2022-11-18T10:09:48.521Z,12.52
2022-11-18T10:15:05.629Z,11.82
2022-11-18T10:20:21.738Z,11.40
2022-11-18T10:25:26.562Z,15.57
2022-11-18T10:30:31.352Z,9.07
2022-11-18T10:35:37.318Z,9.80
2022-11-18T10:40:46.420Z,11.45
2022-11-18T10:45:49.575Z,12.10
2022-11-18T10:50:55.902Z,11.35
2022-11-18T10:56:02.001Z,11.90
2022-11-18T11:01:07.145Z,12.68
2022-11-18T11:06:23.306Z,10.20
2022-11-18T11:11:30.126Z,13.55
2022-11-18T11:16:39.355Z,9.93
2022-11-18T11:21:42.548Z,10.57
2022-11-18T11:32:26.536Z,7.25
2022-11-18T11:37:41.537Z,10.25
2022-11-18T11:48:10.574Z,6.97
2022-11-18T11:53:20.704Z,8.98
2022-11-18T11:58:45.063Z,9.00
2022-11-18T12:03:52.315Z,8.90
2022-11-18T12:09:05.784Z,10.57
2022-11-18T12:14:21.037Z,8.38
2022-11-18T12:19:24.871Z,7.50
2022-11-18T12:24:37.078Z,7.70
2022-11-18T12:29:54.347Z,7.95
2022-11-18T12:35:00.863Z,8.98
2022-11-18T12:40:05.262Z,12.02
2022-11-18T12:45:53.715Z,8.02
2022-11-18T12:50:59.253Z,8.57
2022-11-18T12:56:11.142Z,9.00
2022-11-18T13:01:17.588Z,12.52
2022-11-18T13:06:28.466Z,9.57
2022-11-18T13:11:45.804Z,7.78
2022-11-18T13:17:12.232Z,5.40
2022-11-18T13:22:37.178Z,7.88
2022-11-18T13:32:49.440Z,6.35
2022-11-18T13:37:55.921Z,7.03
2022-11-18T13:42:59.016Z,6.35
2022-11-18T13:48:09.087Z,7.93
2022-11-18T13:53:27.521Z,7.30
2022-11-18T13:59:02.710Z,7.95
2022-11-18T14:04:03.631Z,10.93
2022-11-18T14:09:19.077Z,7.07
2022-11-18T14:14:29.577Z,8.90
2022-11-18T14:19:41.026Z,11.00
2022-11-18T14:24:54.765Z,8.88
2022-11-18T14:29:57.820Z,10.38
2022-11-18T14:35:01.135Z,7.30
2022-11-18T14:40:13.430Z,7.40
2022-11-18T14:45:16.759Z,6.40
2022-11-18T14:50:19.880Z,5.00
2022-11-18T14:55:24.643Z,9.52
2022-11-18T15:00:27.980Z,6.20
2022-11-18T15:05:31.839Z,4.28
2022-11-18T15:10:36.448Z,7.30
2022-11-18T15:15:39.525Z,12.45
2022-11-18T15:20:42.717Z,5.60
2022-11-18T15:25:47.119Z,5.03
2022-11-18T15:30:50.219Z,5.63
2022-11-18T15:35:53.349Z,4.75
2022-11-18T15:40:58.733Z,5.93
2022-11-18T15:46:01.930Z,8.48
2022-11-18T15:51:11.546Z,7.10
2022-11-18T15:56:26.419Z,3.83
2022-11-18T16:01:31.489Z,14.52
2022-11-18T16:06:35.276Z,7.20
2022-11-18T16:11:58.546Z,4.55
2022-11-18T16:17:01.575Z,4.13
2022-11-18T16:22:04.653Z,6.80
2022-11-18T16:27:08.975Z,5.45
2022-11-18T16:32:14.516Z,7.15
2022-11-18T16:37:17.814Z,7.22
2022-11-18T16:42:22.605Z,4.40
2022-11-18T16:47:25.833Z,10.32
2022-11-18T16:52:28.985Z,8.60
2022-11-18T16:57:33.525Z,5.60
2022-11-18T17:02:36.698Z,5.28
2022-11-18T17:07:39.875Z,5.35
2022-11-18T17:12:44.289Z,4.57
2022-11-18T17:17:47.458Z,7.47
2022-11-18T17:22:52.346Z,6.45
2022-11-18T17:32:59.705Z,4.13
2022-11-18T17:38:02.783Z,3.92
2022-11-18T17:43:07.301Z,5.80
2022-11-18T17:48:10.370Z,5.07
2022-11-18T17:53:14.262Z,5.03
2022-11-18T17:58:18.798Z,4.85
2022-11-18T18:03:21.944Z,3.65
2022-11-18T18:08:25.033Z,12.15
2022-11-18T18:13:47.975Z,6.95
2022-11-18T18:18:51.788Z,7.00
2022-11-18T18:23:55.947Z,6.45
2022-11-18T18:29:01.001Z,10.13
2022-11-18T18:39:07.218Z,5.07
2022-11-18T18:44:18.062Z,10.63
2022-11-18T18:49:24.375Z,5.07
2022-11-18T18:54:27.678Z,12.55
2022-11-18T18:59:32.816Z,6.93
2022-11-18T19:04:36.002Z,9.13
2022-11-18T19:09:39.255Z,7.82
2022-11-18T19:14:43.900Z,7.25
2022-11-18T19:20:05.488Z,8.15
2022-11-18T19:25:09.720Z,3.28
2022-11-18T19:30:14.850Z,5.82
2022-11-18T19:40:21.356Z,6.40
2022-11-18T19:45:26.068Z,6.50
2022-11-18T19:50:29.363Z,11.85
2022-11-18T19:55:32.402Z,6.60
2022-11-18T20:00:36.824Z,6.05
2022-11-18T20:05:52.190Z,6.97
2022-11-18T20:10:55.266Z,8.60
2022-11-18T20:16:04.733Z,6.05
2022-11-18T20:21:09.854Z,7.60
2022-11-18T20:26:15.393Z,5.72
2022-11-18T20:31:21.977Z,9.48
2022-11-18T20:36:27.122Z,5.03
2022-11-18T20:41:31.750Z,8.85
2022-11-18T20:46:36.288Z,6.30
2022-11-18T20:51:39.510Z,4.65
2022-11-18T20:56:43.353Z,6.63
2022-11-18T21:01:49.008Z,11.18
2022-11-18T21:06:57.390Z,12.07
2022-11-18T21:12:01.092Z,16.23
2022-11-18T21:17:05.692Z,10.23
2022-11-18T21:22:08.754Z,14.27
2022-11-18T21:27:11.824Z,6.68
2022-11-18T21:32:16.378Z,6.60
2022-11-18T21:37:19.534Z,10.27
2022-11-18T21:42:22.614Z,4.95
2022-11-18T21:47:27.100Z,9.35
2022-11-18T21:52:30.217Z,12.02
2022-11-18T21:57:33.407Z,9.30
2022-11-18T22:02:38.065Z,11.60
2022-11-18T22:07:41.263Z,10.00
2022-11-18T22:12:47.126Z,13.05
2022-11-18T22:17:51.559Z,11.30
2022-11-18T22:22:54.681Z,9.13
2022-11-18T22:27:57.716Z,16.80
2022-11-18T22:33:02.091Z,7.03
2022-11-18T22:38:05.426Z,10.65
2022-11-18T22:43:08.496Z,13.10
2022-11-18T22:48:12.914Z,11.15
2022-11-18T22:53:16.100Z,10.77
2022-11-18T22:58:19.244Z,7.53
2022-11-18T23:03:23.740Z,11.10
2022-11-18T23:08:28.225Z,10.90
2022-11-18T23:13:50.116Z,6.85
2022-11-18T23:18:54.640Z,13.65
2022-11-18T23:23:57.784Z,10.88
2022-11-18T23:29:01.191Z,10.55
2022-11-18T23:34:05.715Z,12.60
2022-11-18T23:39:09.587Z,9.35
2022-11-18T23:44:12.729Z,9.80
2022-11-18T23:49:17.435Z,10.48
2022-11-18T23:59:23.841Z,5.53
